Hub


Voltar

 INFORMAÇÕES METEOROLÓGICAS

METAR FOR SBJV


ADDS - METARS form results

(0348 UTC 21 May 2019)
Data provider http://aviationweather.gov/metar/data/
 
Forecast for: SBJV (JOINVILLE , BR)
Text: TAF SBJV 202100Z 2100/2112 28005KT 9999 SCT010 TX20/2100Z TN18/2108Z
Forecast period: 0000 to 1200 UTC 21 May 2019
Forecast type: FROM: standard forecast or significant change
Winds: from the W (280 degrees) at 6 MPH (5 knots; 2.6 m/s)
Visibility: 6 or more miles 10+ km)
Ceiling: at least 12,000 feet AGL
Clouds: scattered clouds at 1000 feet AGL
Weather: no significant weather forecast for this period
Text: PROB40 2108/2112 2000 BR BKN004 RMK PDJ
Forecast period: 0800 to 1200 UTC 21 May 2019
Forecast type: PROBABLE: 40 percent likelihood of the following during this time
Visibility: 1.24 miles (2.00 km)
Ceiling: 400 feet AGL
Clouds: broken clouds at 400 feet AGL
Weather: BR  (mist)


 MAPA DO AEROPORTO


 INFORMAÇÕES DA PISTA

Pista 15 Tamanho da pista 5381 ft Largura da pista 148 ft
Elevação da pista 0 ft Ranhura da pista 330 ft Proa da pista 0
Pista 33 Tamanho da pista 5381 ft Largura da pista 148 ft
Elevação da pista 0 ft Ranhura da pista 0 ft Proa da pista 0

 FREQUÊNCIAS DO AEROPORTO

Tipo AFIS Nome TWR Frequência 118 MHZ

 AUXÍLIOS DE NAVEGAÇÃO PRÓXIMOS AO AEROPORTO

Tipo NDB Nome Gabi Frequência 245 KHZ
Tipo VOR-DME Nome Joinville Frequência 115100 KHZ